createdAt,value
2018-09-19T00:02:03.548Z,94.10
2018-09-19T00:07:25.617Z,94.20
2018-09-19T00:12:47.506Z,94.30
2018-09-19T00:18:09.680Z,94.80
2018-09-19T00:23:31.526Z,95.20
2018-09-19T00:28:53.538Z,95.40
2018-09-19T00:34:19.123Z,95.50
2018-09-19T00:39:40.906Z,95.60
2018-09-19T00:45:03.034Z,95.80
2018-09-19T00:50:25.006Z,95.70
2018-09-19T00:55:47.147Z,95.50
2018-09-19T01:01:09.001Z,95.30
2018-09-19T01:06:31.290Z,95.20
2018-09-19T01:11:53.119Z,95.00
2018-09-19T01:17:15.305Z,94.70
2018-09-19T01:22:37.129Z,94.50
2018-09-19T01:27:59.178Z,94.60
2018-09-19T01:33:21.170Z,94.60
2018-09-19T01:38:43.568Z,94.30
2018-09-19T01:44:05.725Z,94.40
2018-09-19T01:49:27.476Z,94.50
2018-09-19T01:54:49.725Z,94.70
2018-09-19T02:00:11.654Z,94.90
2018-09-19T02:05:33.821Z,95.10
2018-09-19T02:10:55.886Z,95.10
2018-09-19T02:16:17.816Z,95.30
2018-09-19T02:21:39.622Z,95.10
2018-09-19T02:27:01.800Z,95.10
2018-09-19T02:32:23.706Z,95.20
2018-09-19T02:37:45.897Z,95.20
2018-09-19T02:43:09.101Z,95.10
2018-09-19T02:48:31.391Z,95.00
2018-09-19T02:53:53.325Z,95.60
2018-09-19T02:59:15.412Z,96.10
2018-09-19T03:04:37.335Z,95.80
2018-09-19T03:09:59.493Z,95.50
2018-09-19T03:15:21.722Z,95.30
2018-09-19T03:20:43.723Z,95.40
2018-09-19T03:26:05.661Z,95.40
2018-09-19T03:31:27.857Z,95.30
2018-09-19T03:36:49.630Z,95.30
2018-09-19T03:42:11.773Z,95.30
2018-09-19T03:47:33.693Z,95.90
2018-09-19T03:52:57.554Z,95.50
2018-09-19T03:58:20.038Z,95.50
2018-09-19T04:03:41.882Z,95.30
2018-09-19T04:09:04.421Z,95.40
2018-09-19T04:14:26.730Z,95.30
2018-09-19T04:19:48.844Z,95.50
2018-09-19T04:25:11.052Z,95.70
2018-09-19T04:30:32.867Z,95.60
2018-09-19T04:35:55.113Z,95.40
2018-09-19T04:41:16.932Z,95.50
2018-09-19T04:46:39.932Z,95.50
2018-09-19T04:52:02.332Z,95.60
2018-09-19T04:57:24.529Z,95.60
2018-09-19T05:02:46.449Z,95.40
2018-09-19T05:08:08.598Z,95.40
2018-09-19T05:13:30.418Z,95.40
2018-09-19T05:18:52.616Z,95.50
2018-09-19T05:24:14.218Z,95.40
2018-09-19T05:29:35.838Z,95.30
2018-09-19T05:34:57.901Z,95.20
2018-09-19T05:40:19.747Z,95.20
2018-09-19T05:45:41.826Z,95.60
2018-09-19T05:51:03.618Z,95.70
2018-09-19T05:56:25.859Z,95.90
2018-09-19T06:01:47.515Z,96.20
2018-09-19T06:07:09.632Z,96.40
2018-09-19T06:12:31.505Z,96.50
2018-09-19T06:17:53.648Z,96.80
2018-09-19T06:23:15.519Z,96.90
2018-09-19T06:28:37.857Z,96.90
2018-09-19T06:33:59.480Z,96.90
2018-09-19T06:39:21.641Z,96.90
2018-09-19T06:44:43.517Z,97.10
2018-09-19T06:50:06.458Z,97.50
2018-09-19T06:55:28.650Z,97.30
2018-09-19T07:00:50.574Z,97.30
2018-09-19T07:06:12.642Z,97.10
2018-09-19T07:11:34.563Z,97.00
2018-09-19T07:16:56.741Z,96.90
2018-09-19T07:22:18.629Z,97.00
2018-09-19T07:27:40.869Z,96.80
2018-09-19T07:33:03.927Z,96.70
2018-09-19T07:38:25.947Z,96.70
2018-09-19T07:43:47.888Z,96.50
2018-09-19T07:49:10.041Z,96.40
2018-09-19T07:54:31.910Z,96.30
2018-09-19T07:59:53.967Z,95.60
2018-09-19T08:05:18.385Z,95.60
2018-09-19T08:10:40.661Z,95.30
2018-09-19T08:16:02.667Z,94.90
2018-09-19T08:21:25.121Z,94.10
2018-09-19T08:26:47.431Z,94.00
2018-09-19T08:32:09.796Z,93.10
2018-09-19T08:37:33.120Z,93.20
2018-09-19T08:42:55.310Z,92.70
2018-09-19T08:48:17.527Z,92.10
2018-09-19T08:53:39.798Z,92.10
2018-09-19T08:59:01.617Z,91.80
2018-09-19T09:04:23.799Z,91.20
2018-09-19T09:09:45.735Z,90.90
2018-09-19T09:15:08.509Z,90.00
2018-09-19T09:20:30.700Z,88.80
2018-09-19T09:25:52.450Z,87.70
2018-09-19T09:31:15.368Z,86.20
2018-09-19T09:36:37.710Z,84.40
2018-09-19T09:42:00.125Z,85.90
2018-09-19T09:47:22.090Z,85.60
2018-09-19T09:52:44.218Z,87.00
2018-09-19T09:58:06.593Z,86.80
2018-09-19T10:03:28.759Z,86.80
2018-09-19T10:08:51.067Z,85.80
2018-09-19T10:14:13.970Z,85.90
2018-09-19T10:19:37.729Z,83.30
2018-09-19T10:24:59.674Z,84.90
2018-09-19T10:30:21.780Z,82.80
2018-09-19T10:35:44.436Z,80.90
2018-09-19T10:41:06.249Z,80.20
2018-09-19T10:46:28.570Z,81.20
2018-09-19T10:51:50.324Z,82.40
2018-09-19T10:57:12.463Z,80.70
2018-09-19T11:02:34.493Z,81.10
2018-09-19T11:07:57.105Z,80.70
2018-09-19T11:13:21.454Z,80.70
2018-09-19T11:18:45.731Z,80.40
2018-09-19T11:24:08.249Z,80.20
2018-09-19T11:29:30.272Z,79.60
2018-09-19T11:34:52.121Z,77.00
2018-09-19T11:40:14.210Z,79.60
2018-09-19T11:45:36.145Z,80.00
2018-09-19T11:50:59.225Z,79.00
2018-09-19T11:56:21.184Z,78.70
2018-09-19T12:01:42.989Z,78.70
2018-09-19T12:07:05.084Z,77.80
2018-09-19T12:12:27.056Z,77.70
2018-09-19T12:17:49.104Z,76.90
2018-09-19T12:23:11.391Z,77.00
2018-09-19T12:28:33.246Z,77.70
2018-09-19T12:33:55.058Z,77.20
2018-09-19T12:39:17.070Z,75.80
2018-09-19T12:44:38.948Z,76.50
2018-09-19T12:50:02.043Z,75.90
2018-09-19T12:55:24.208Z,75.20
2018-09-19T13:00:46.585Z,77.30
2018-09-19T13:06:08.750Z,77.70
2018-09-19T13:11:30.640Z,76.60
2018-09-19T13:16:52.395Z,76.70
2018-09-19T13:22:14.620Z,76.60
2018-09-19T13:27:36.592Z,75.30
2018-09-19T13:32:58.661Z,76.50
2018-09-19T13:38:20.434Z,77.30
2018-09-19T13:43:42.934Z,77.60
2018-09-19T13:49:08.658Z,78.90
2018-09-19T13:54:31.413Z,78.50
2018-09-19T13:59:53.901Z,77.50
2018-09-19T14:05:15.662Z,77.10
2018-09-19T14:10:38.407Z,77.00
2018-09-19T14:16:00.538Z,77.90
2018-09-19T14:21:23.127Z,79.10
2018-09-19T14:26:45.006Z,79.80
2018-09-19T14:32:07.226Z,80.60
2018-09-19T14:37:29.032Z,81.30
2018-09-19T14:42:51.234Z,81.30
2018-09-19T14:48:12.954Z,81.90
2018-09-19T14:53:35.107Z,82.50
2018-09-19T14:58:57.128Z,82.10
2018-09-19T15:04:19.665Z,81.90
2018-09-19T15:09:41.742Z,81.50
2018-09-19T15:15:03.746Z,81.60
2018-09-19T15:20:26.163Z,82.20
2018-09-19T15:25:48.378Z,79.50
2018-09-19T15:31:10.367Z,80.00
2018-09-19T15:36:33.283Z,81.20
2018-09-19T15:41:55.285Z,81.80
2018-09-19T15:47:17.698Z,82.80
2018-09-19T15:52:39.476Z,82.50
2018-09-19T15:58:01.553Z,82.90
2018-09-19T16:03:23.465Z,83.70
2018-09-19T16:08:45.708Z,84.70
2018-09-19T16:14:08.628Z,85.10
2018-09-19T16:19:30.920Z,85.30
2018-09-19T16:24:52.794Z,85.60
2018-09-19T16:30:14.981Z,87.70
2018-09-19T16:35:36.903Z,86.70
2018-09-19T16:40:59.319Z,86.90
2018-09-19T16:46:21.634Z,87.70
2018-09-19T16:51:43.574Z,88.90
2018-09-19T16:57:05.771Z,88.50
2018-09-19T17:02:27.673Z,88.80
2018-09-19T17:07:49.711Z,88.40
2018-09-19T17:13:12.758Z,88.90
2018-09-19T17:18:34.453Z,89.60
2018-09-19T17:23:56.479Z,90.00
2018-09-19T17:29:18.242Z,90.30
2018-09-19T17:34:40.433Z,90.60
2018-09-19T17:40:02.102Z,90.60
2018-09-19T17:45:24.257Z,90.70
2018-09-19T17:50:46.183Z,91.20
2018-09-19T17:56:08.310Z,91.40
2018-09-19T18:01:30.218Z,91.90
2018-09-19T18:06:52.357Z,92.00
2018-09-19T18:12:14.218Z,92.30
2018-09-19T18:17:36.729Z,92.80
2018-09-19T18:22:58.855Z,93.00
2018-09-19T18:28:20.737Z,92.80
2018-09-19T18:33:42.850Z,93.20
2018-09-19T18:39:05.071Z,93.70
2018-09-19T18:44:27.059Z,93.40
2018-09-19T18:49:49.470Z,93.90
2018-09-19T18:55:11.442Z,93.40
2018-09-19T19:00:33.906Z,93.70
2018-09-19T19:05:56.448Z,93.30
2018-09-19T19:11:18.445Z,93.20
2018-09-19T19:16:41.184Z,93.20
2018-09-19T19:22:04.453Z,92.90
2018-09-19T19:27:26.934Z,93.20
2018-09-19T19:32:49.248Z,93.50
2018-09-19T19:38:11.740Z,94.30
2018-09-19T19:43:34.261Z,94.50
2018-09-19T19:48:56.814Z,94.50
2018-09-19T19:54:19.665Z,94.20
2018-09-19T19:59:43.141Z,94.90
2018-09-19T20:05:05.426Z,94.80
2018-09-19T20:10:27.970Z,95.10
2018-09-19T20:15:51.514Z,95.50
2018-09-19T20:21:13.775Z,95.90
2018-09-19T20:26:36.471Z,95.30
2018-09-19T20:31:58.436Z,95.10
2018-09-19T20:37:20.739Z,95.30
2018-09-19T20:42:43.006Z,95.00
2018-09-19T20:48:05.062Z,95.00
2018-09-19T20:53:26.754Z,95.30
2018-09-19T20:58:49.162Z,95.40
2018-09-19T21:04:11.084Z,96.10
2018-09-19T21:09:33.208Z,95.70
2018-09-19T21:14:55.105Z,96.00
2018-09-19T21:20:17.062Z,96.00
2018-09-19T21:25:39.119Z,95.70
2018-09-19T21:31:01.294Z,95.90
2018-09-19T21:36:23.044Z,96.10
2018-09-19T21:41:45.190Z,96.10
2018-09-19T21:47:06.983Z,96.30
2018-09-19T21:52:29.176Z,96.40
2018-09-19T21:57:51.207Z,96.50
2018-09-19T22:03:13.326Z,96.40
2018-09-19T22:08:36.421Z,96.20
2018-09-19T22:13:58.585Z,95.60
2018-09-19T22:19:20.361Z,95.50
2018-09-19T22:24:43.326Z,95.40
2018-09-19T22:30:05.511Z,95.50
2018-09-19T22:35:27.564Z,95.90
2018-09-19T22:40:49.495Z,95.90
2018-09-19T22:46:11.411Z,95.70
2018-09-19T22:51:33.590Z,95.50
2018-09-19T22:56:55.325Z,95.30
2018-09-19T23:02:17.482Z,95.20
2018-09-19T23:07:39.579Z,95.20
2018-09-19T23:13:01.662Z,95.30
2018-09-19T23:18:23.614Z,95.40
2018-09-19T23:23:45.662Z,95.70
2018-09-19T23:29:07.562Z,95.70
2018-09-19T23:34:29.657Z,95.90
2018-09-19T23:39:51.646Z,95.70
2018-09-19T23:45:14.127Z,95.60
2018-09-19T23:50:36.250Z,95.60
2018-09-19T23:55:58.287Z,95.80
